createdAt,value
2016-06-13T00:00:26.309Z,14.38
2016-06-13T00:01:13.438Z,14.45
2016-06-13T00:02:13.613Z,14.49
2016-06-13T00:03:13.677Z,14.38
2016-06-13T00:04:16.680Z,14.41
2016-06-13T00:05:13.606Z,14.41
2016-06-13T00:06:13.703Z,14.43
2016-06-13T00:07:13.722Z,14.43
2016-06-13T00:08:13.739Z,14.48
2016-06-13T00:09:13.774Z,14.45
2016-06-13T00:10:26.543Z,14.45
2016-06-13T00:11:13.827Z,14.43
2016-06-13T00:12:33.127Z,14.37
2016-06-13T00:13:16.897Z,14.4
2016-06-13T00:14:13.868Z,14.43
2016-06-13T00:15:13.886Z,14.37
2016-06-13T00:16:17.030Z,14.37
2016-06-13T00:17:26.674Z,14.38
2016-06-13T00:18:14.662Z,14.41
2016-06-13T00:19:39.652Z,14.41
2016-06-13T00:20:13.965Z,14.51
2016-06-13T00:21:13.999Z,14.58
2016-06-13T00:22:14.002Z,14.34
2016-06-13T00:23:26.864Z,14.4
2016-06-13T00:24:14.071Z,14.41
2016-06-13T00:25:45.389Z,14.41
2016-06-13T00:26:31.983Z,14.41
2016-06-13T00:27:29.861Z,14.48
2016-06-13T00:28:29.817Z,14.37
2016-06-13T00:29:29.836Z,14.48
2016-06-13T00:30:29.838Z,14.48
2016-06-13T00:31:32.888Z,14.48
2016-06-13T00:32:32.924Z,14.49
2016-06-13T00:33:36.177Z,14.48
2016-06-13T00:34:30.039Z,14.52
2016-06-13T00:35:29.964Z,14.49
2016-06-13T00:36:30.107Z,14.51
2016-06-13T00:37:29.970Z,14.53
2016-06-13T00:38:30.082Z,14.52
2016-06-13T00:39:33.054Z,14.49
2016-06-13T00:40:30.277Z,14.48
2016-06-13T00:41:31.013Z,14.52
2016-06-13T00:42:33.172Z,14.48
2016-06-13T00:43:42.851Z,14.43
2016-06-13T00:44:42.853Z,14.45
2016-06-13T00:45:30.150Z,14.41
2016-06-13T00:46:30.170Z,14.41
2016-06-13T00:47:49.410Z,14.4
2016-06-13T00:48:42.788Z,14.41
2016-06-13T00:50:52.513Z,14.4
2016-06-13T00:52:39.722Z,14.45
2016-06-13T00:53:39.726Z,14.37
2016-06-13T00:54:52.509Z,14.33
2016-06-13T00:55:40.326Z,14.4
2016-06-13T00:56:40.485Z,14.31
2016-06-13T00:57:39.894Z,14.23
2016-06-13T00:58:52.585Z,14.23
2016-06-13T00:59:39.978Z,14.25
2016-06-13T01:00:39.903Z,14.22
2016-06-13T01:01:40.078Z,14.2
2016-06-13T01:02:39.925Z,14.22
2016-06-13T01:03:39.943Z,14.08
2016-06-13T01:04:52.713Z,14.23
2016-06-13T01:05:39.996Z,14.12
2016-06-13T01:06:59.234Z,14.18
2016-06-13T01:07:52.769Z,14.15
2016-06-13T01:08:40.052Z,14.13
2016-06-13T01:10:05.743Z,14.12
2016-06-13T01:10:49.527Z,14.13
2016-06-13T01:11:49.922Z,14.04
2016-06-13T01:12:49.909Z,14.04
2016-06-13T01:13:49.739Z,14.07
2016-06-13T01:14:49.665Z,14.01
2016-06-13T01:15:51.309Z,14.08
2016-06-13T01:16:52.671Z,13.97
2016-06-13T01:18:02.408Z,14.01
2016-06-13T01:18:49.755Z,13.98
2016-06-13T01:20:09.071Z,13.98
2016-06-13T01:20:49.886Z,14.04
2016-06-13T01:21:52.921Z,14.04
2016-06-13T01:23:02.643Z,13.95
2016-06-13T01:23:49.958Z,14.03
2016-06-13T01:24:49.961Z,13.98
2016-06-13T01:25:50.760Z,13.97
2016-06-13T01:26:50.030Z,13.98
2016-06-13T01:27:50.189Z,13.98
2016-06-13T01:29:02.786Z,14.05
2016-06-13T01:29:50.148Z,13.98
2016-06-13T01:31:15.761Z,13.97
2016-06-13T01:31:50.342Z,14.03
2016-06-13T01:32:50.126Z,13.95
2016-06-13T01:34:05.349Z,13.95
2016-06-13T01:35:05.382Z,13.97
2016-06-13T01:36:05.401Z,13.97
2016-06-13T01:37:05.420Z,13.95
2016-06-13T01:38:05.455Z,13.98
2016-06-13T01:39:05.458Z,13.97
2016-06-13T01:40:06.991Z,14.04
2016-06-13T01:41:06.198Z,13.98
2016-06-13T01:42:18.279Z,13.98
2016-06-13T01:43:08.579Z,14
2016-06-13T01:44:36.848Z,13.97
2016-06-13T01:45:11.867Z,14.01
2016-06-13T01:46:36.885Z,13.97
2016-06-13T01:47:24.841Z,14
2016-06-13T01:49:05.675Z,13.91
2016-06-13T01:50:05.679Z,13.94
2016-06-13T01:51:18.447Z,13.98
2016-06-13T01:52:05.731Z,13.97
2016-06-13T01:53:05.765Z,13.93
2016-06-13T01:54:18.488Z,13.95
2016-06-13T01:55:05.771Z,13.98
2016-06-13T01:56:32.010Z,14.01
2016-06-13T01:57:15.825Z,13.93
2016-06-13T01:58:15.891Z,13.97
2016-06-13T01:59:17.284Z,13.85
2016-06-13T02:00:15.881Z,13.89
2016-06-13T02:01:15.604Z,13.93
2016-06-13T02:02:35.121Z,13.93
2016-06-13T02:03:44.847Z,13.86
2016-06-13T02:04:19.128Z,13.87
2016-06-13T02:05:19.146Z,13.87
2016-06-13T02:06:19.150Z,13.86
2016-06-13T02:07:19.169Z,13.82
2016-06-13T02:08:31.936Z,13.83
2016-06-13T02:09:19.222Z,13.85
2016-06-13T02:10:19.225Z,13.86
2016-06-13T02:11:19.103Z,13.83
2016-06-13T02:12:28.559Z,13.82
2016-06-13T02:13:22.312Z,13.76
2016-06-13T02:14:38.283Z,13.8
2016-06-13T02:15:19.319Z,13.73
2016-06-13T02:16:50.699Z,13.68
2016-06-13T02:17:19.371Z,13.8
2016-06-13T02:18:19.452Z,13.73
2016-06-13T02:19:22.440Z,13.75
2016-06-13T02:20:38.615Z,13.68
2016-06-13T02:21:20.993Z,13.73
2016-06-13T02:22:38.715Z,13.73
2016-06-13T02:23:19.483Z,13.73
2016-06-13T02:24:45.177Z,13.67
2016-06-13T02:25:29.099Z,13.71
2016-06-13T02:26:30.102Z,13.73
2016-06-13T02:27:29.136Z,13.68
2016-06-13T02:28:29.170Z,13.75
2016-06-13T02:29:41.940Z,13.75
2016-06-13T02:30:29.192Z,13.73
2016-06-13T02:31:29.243Z,13.64
2016-06-13T02:32:29.246Z,13.73
2016-06-13T02:33:32.296Z,13.68
2016-06-13T02:34:38.594Z,13.71
2016-06-13T02:35:35.833Z,13.71
2016-06-13T02:36:29.336Z,13.7
2016-06-13T02:37:42.120Z,13.62
2016-06-13T02:38:29.389Z,13.65
2016-06-13T02:39:29.439Z,13.71
2016-06-13T02:40:42.145Z,13.65
2016-06-13T02:41:29.445Z,13.68
2016-06-13T02:42:29.432Z,13.71
2016-06-13T02:43:42.217Z,13.65
2016-06-13T02:44:29.486Z,13.62
2016-06-13T02:45:55.179Z,13.73
2016-06-13T02:46:30.929Z,13.7
2016-06-13T02:47:29.557Z,13.76
2016-06-13T02:48:42.310Z,13.73
2016-06-13T02:49:31.015Z,13.76
2016-06-13T02:50:55.288Z,13.76
2016-06-13T02:51:32.663Z,13.71
2016-06-13T02:53:00.950Z,13.8
2016-06-13T02:53:29.669Z,13.71
2016-06-13T02:54:29.672Z,13.73
2016-06-13T02:55:29.707Z,13.73
2016-06-13T02:56:29.741Z,13.71
2016-06-13T02:57:29.744Z,13.68
2016-06-13T02:58:29.763Z,13.82
2016-06-13T02:59:48.988Z,13.85
2016-06-13T03:00:29.785Z,13.76
2016-06-13T03:01:29.646Z,13.82
2016-06-13T03:02:29.853Z,13.82
2016-06-13T03:03:29.888Z,13.83
2016-06-13T03:04:31.297Z,13.79
2016-06-13T03:05:49.350Z,13.85
2016-06-13T03:06:49.134Z,13.82
2016-06-13T03:08:01.263Z,13.86
2016-06-13T03:09:01.265Z,13.73
2016-06-13T03:09:29.984Z,13.85
2016-06-13T03:10:42.768Z,13.87
2016-06-13T03:11:32.178Z,13.86
2016-06-13T03:12:30.072Z,13.79
2016-06-13T03:13:30.074Z,13.91
2016-06-13T03:14:42.937Z,13.85
2016-06-13T03:15:29.956Z,13.89
2016-06-13T03:16:49.337Z,13.86
2016-06-13T03:17:30.149Z,13.8
2016-06-13T03:18:55.858Z,13.97
2016-06-13T03:19:33.218Z,13.83
2016-06-13T03:20:30.221Z,13.85
2016-06-13T03:21:42.975Z,13.86
2016-06-13T03:22:30.242Z,13.98
2016-06-13T03:23:55.952Z,13.93
2016-06-13T03:24:46.174Z,13.98
2016-06-13T03:25:40.049Z,13.89
2016-06-13T03:26:39.989Z,13.94
2016-06-13T03:27:39.983Z,13.83
2016-06-13T03:28:40.011Z,13.87
2016-06-13T03:29:59.395Z,13.89
2016-06-13T03:30:40.145Z,13.97
2016-06-13T03:31:40.235Z,13.91
2016-06-13T03:32:52.859Z,13.98
2016-06-13T03:33:40.296Z,13.95
2016-06-13T03:34:40.330Z,14
2016-06-13T03:35:52.990Z,13.93
2016-06-13T03:36:40.412Z,14
2016-06-13T03:38:06.119Z,13.94
2016-06-13T03:38:40.447Z,13.93
2016-06-13T03:39:40.488Z,14
2016-06-13T03:40:59.739Z,13.98
2016-06-13T03:41:40.395Z,14.08
2016-06-13T03:43:11.875Z,14.04
2016-06-13T03:43:40.594Z,14.08
2016-06-13T03:45:55.937Z,14.08
2016-06-13T03:46:55.973Z,14.11
2016-06-13T03:47:58.977Z,14.18
2016-06-13T03:48:56.074Z,14.11
2016-06-13T03:49:57.422Z,14.2
2016-06-13T03:50:56.019Z,14.18
2016-06-13T03:51:56.023Z,14.25
2016-06-13T03:52:56.072Z,14.2
2016-06-13T03:53:56.092Z,14.2
2016-06-13T03:54:56.141Z,14.22
2016-06-13T03:56:03.770Z,14.28
2016-06-13T03:56:58.085Z,14.26
2016-06-13T03:58:21.823Z,14.25
2016-06-13T03:59:05.826Z,14.26
2016-06-13T04:00:31.422Z,14.26
2016-06-13T04:01:18.597Z,14.23
2016-06-13T04:02:37.163Z,14.3
2016-06-13T04:03:31.557Z,14.26
2016-06-13T04:04:41.184Z,14.28
2016-06-13T04:05:41.204Z,14.26
2016-06-13T04:06:16.956Z,14.37
2016-06-13T04:07:15.569Z,14.3
2016-06-13T04:08:17.010Z,14.22
2016-06-13T04:09:34.856Z,14.2
2016-06-13T04:10:15.641Z,14.3
2016-06-13T04:12:31.272Z,14.36
2016-06-13T04:13:31.041Z,14.34
2016-06-13T04:14:31.169Z,14.26
2016-06-13T04:15:43.843Z,14.31
2016-06-13T04:16:43.863Z,14.36
2016-06-13T04:17:31.146Z,14.36
2016-06-13T04:18:31.212Z,14.41
2016-06-13T04:19:31.200Z,14.44
2016-06-13T04:20:31.203Z,14.4
2016-06-13T04:21:39.002Z,14.44
2016-06-13T04:22:44.005Z,14.4
2016-06-13T04:23:43.821Z,14.4
2016-06-13T04:25:33.874Z,14.45
2016-06-13T04:25:59.283Z,14.4
2016-06-13T04:26:47.005Z,14.41
2016-06-13T04:28:49.152Z,14.51
2016-06-13T04:29:01.808Z,14.38
2016-06-13T04:30:01.843Z,14.4
2016-06-13T04:31:14.597Z,14.41
2016-06-13T04:32:01.880Z,14.41
2016-06-13T04:33:27.570Z,14.45
2016-06-13T04:34:11.339Z,14.51
2016-06-13T04:35:11.529Z,14.44
2016-06-13T04:36:11.549Z,14.56
2016-06-13T04:37:13.004Z,14.59
2016-06-13T04:38:11.586Z,14.52
2016-06-13T04:39:24.449Z,14.49
2016-06-13T04:40:30.842Z,14.55
2016-06-13T04:41:24.408Z,14.62
2016-06-13T04:42:37.348Z,14.68
2016-06-13T04:43:40.476Z,14.63
2016-06-13T04:44:27.449Z,14.78
2016-06-13T04:45:53.001Z,14.87
2016-06-13T04:46:27.501Z,14.86
2016-06-13T04:48:42.757Z,14.99
2016-06-13T04:49:42.822Z,14.92
2016-06-13T04:50:55.533Z,14.99
2016-06-13T04:51:45.861Z,14.97
2016-06-13T04:53:08.585Z,15.11
2016-06-13T04:54:18.198Z,15.17
2016-06-13T04:55:02.310Z,15.15
2016-06-13T04:57:11.895Z,15.23
2016-06-13T04:58:24.648Z,15.17
2016-06-13T04:59:11.932Z,15.22
2016-06-13T05:00:12.028Z,15.25
2016-06-13T05:01:24.720Z,15.19
2016-06-13T05:02:24.707Z,15.17
2016-06-13T05:03:37.679Z,15.18
2016-06-13T05:04:37.729Z,15.19
2016-06-13T05:05:44.746Z,15.1
2016-06-13T05:06:14.969Z,15.18
2016-06-13T05:07:12.097Z,15.12
2016-06-13T05:08:18.413Z,14.97
2016-06-13T05:09:24.931Z,14.97
2016-06-13T05:10:12.153Z,15
2016-06-13T05:11:12.297Z,15
2016-06-13T05:12:24.972Z,14.94
2016-06-13T05:13:13.834Z,15
2016-06-13T05:14:12.479Z,14.93
2016-06-13T05:15:26.825Z,15
2016-06-13T05:16:25.249Z,15.02
2016-06-13T05:17:12.456Z,14.99
2016-06-13T05:18:37.944Z,15.05
2016-06-13T05:19:21.587Z,15
2016-06-13T05:20:47.481Z,14.9
2016-06-13T05:21:23.234Z,14.92
2016-06-13T05:22:21.784Z,14.92
2016-06-13T05:23:41.037Z,14.87
2016-06-13T05:24:21.837Z,14.92
2016-06-13T05:25:53.172Z,14.9
2016-06-13T05:26:37.141Z,14.89
2016-06-13T05:27:36.847Z,14.97
2016-06-13T05:28:40.192Z,14.96
2016-06-13T05:29:46.508Z,14.99
2016-06-13T05:30:49.937Z,14.97
2016-06-13T05:31:37.234Z,15
2016-06-13T05:32:57.052Z,15.05
2016-06-13T05:33:50.008Z,15.11
2016-06-13T05:34:37.290Z,15.11
2016-06-13T05:36:02.967Z,15.17
2016-06-13T05:36:38.733Z,15.19
2016-06-13T05:38:08.645Z,15.12
2016-06-13T05:38:37.473Z,15.26
2016-06-13T05:39:37.398Z,15.26
2016-06-13T05:40:50.154Z,15.35
2016-06-13T05:41:38.982Z,15.35
2016-06-13T05:43:03.130Z,15.33
2016-06-13T05:43:37.474Z,15.41
2016-06-13T05:45:04.589Z,15.55
2016-06-13T05:45:42.839Z,15.57
2016-06-13T05:46:42.936Z,15.55
2016-06-13T05:47:44.220Z,15.65
2016-06-13T05:48:55.789Z,15.69
2016-06-13T05:49:46.039Z,15.73
2016-06-13T05:50:55.810Z,15.69
2016-06-13T05:51:43.045Z,15.76
2016-06-13T05:52:46.157Z,15.9
2016-06-13T05:53:43.082Z,15.91
2016-06-13T05:54:43.133Z,16.03
2016-06-13T05:55:46.167Z,16.16
2016-06-13T05:56:55.876Z,16.18
2016-06-13T05:57:43.829Z,16.18
2016-06-13T05:59:08.867Z,16.18
2016-06-13T05:59:55.823Z,16.24
2016-06-13T06:00:55.840Z,16.17
2016-06-13T06:02:08.610Z,16.16
2016-06-13T06:03:03.582Z,16.26
2016-06-13T06:03:57.335Z,16.31
2016-06-13T06:05:21.603Z,16.17
2016-06-13T06:05:55.951Z,16.18
2016-06-13T06:06:55.984Z,16.18
2016-06-13T06:07:55.987Z,16.13
2016-06-13T06:08:55.850Z,16.13
2016-06-13T06:10:15.244Z,16.05
2016-06-13T06:11:05.357Z,16.1
2016-06-13T06:13:18.941Z,16.24
2016-06-13T06:14:30.350Z,16.16
2016-06-13T06:15:23.916Z,16.12
2016-06-13T06:16:43.340Z,16.21
2016-06-13T06:17:36.937Z,16.21
2016-06-13T06:18:20.893Z,16.18
2016-06-13T06:19:20.928Z,16.31
2016-06-13T06:20:52.230Z,16.4
2016-06-13T06:21:30.543Z,16.44
2016-06-13T06:23:01.862Z,16.41
2016-06-13T06:23:40.206Z,16.51
2016-06-13T06:24:40.209Z,16.55
2016-06-13T06:25:43.274Z,16.66
2016-06-13T06:26:40.246Z,16.59
2016-06-13T06:27:40.124Z,16.65
2016-06-13T06:28:53.068Z,16.58
2016-06-13T06:29:40.334Z,16.68
2016-06-13T06:31:06.043Z,16.72
2016-06-13T06:31:49.980Z,16.8
2016-06-13T06:32:50.061Z,16.68
2016-06-13T06:33:49.971Z,16.79
2016-06-13T06:34:51.490Z,16.86
2016-06-13T06:36:02.809Z,16.92
2016-06-13T06:36:53.139Z,16.94
2016-06-13T06:38:15.814Z,16.89
2016-06-13T06:39:00.052Z,16.89
2016-06-13T06:39:59.727Z,16.92
2016-06-13T06:41:31.214Z,16.89
2016-06-13T06:42:15.249Z,16.94
2016-06-13T06:43:15.361Z,16.97
2016-06-13T06:44:34.505Z,16.91
2016-06-13T06:45:18.367Z,16.87
2016-06-13T06:46:34.526Z,16.84
2016-06-13T06:47:28.108Z,16.8
2016-06-13T06:48:18.407Z,16.8
2016-06-13T06:49:15.396Z,16.91
2016-06-13T06:50:15.460Z,16.86
2016-06-13T06:51:28.183Z,17.02
2016-06-13T06:52:18.498Z,17.07
2016-06-13T06:53:41.158Z,17.04
2016-06-13T06:54:34.707Z,17.14
2016-06-13T06:55:15.538Z,17.16
2016-06-13T06:56:46.838Z,17.3
2016-06-13T06:57:56.485Z,17.37
2016-06-13T06:58:30.860Z,17.53
2016-06-13T06:59:30.863Z,17.57
2016-06-13T07:00:30.897Z,17.82
2016-06-13T07:01:30.901Z,17.87
2016-06-13T07:02:30.810Z,17.95
2016-06-13T07:03:43.703Z,17.87
2016-06-13T07:04:31.129Z,17.86
2016-06-13T07:05:56.666Z,17.79
2016-06-13T07:06:50.057Z,17.8
2016-06-13T07:07:31.029Z,17.82
2016-06-13T07:08:56.753Z,17.8
2016-06-13T07:09:31.082Z,17.8
2016-06-13T07:10:31.116Z,17.73
2016-06-13T07:11:32.556Z,17.75
2016-06-13T07:12:31.169Z,17.72
2016-06-13T07:13:34.219Z,17.79
2016-06-13T07:14:32.691Z,17.82
2016-06-13T07:15:43.975Z,17.95
2016-06-13T07:16:43.979Z,18.15
2016-06-13T07:17:44.091Z,18.13
2016-06-13T07:18:57.097Z,18.28
2016-06-13T07:19:57.005Z,18.41
2016-06-13T07:21:46.790Z,18.53
2016-06-13T07:22:46.684Z,18.66
2016-06-13T07:23:46.796Z,18.73
2016-06-13T07:25:05.960Z,18.82
2016-06-13T07:25:46.803Z,18.79
2016-06-13T07:26:46.790Z,18.67
2016-06-13T07:27:49.683Z,18.61
2016-06-13T07:28:48.250Z,18.63
2016-06-13T07:29:48.284Z,18.63
2016-06-13T07:31:06.086Z,18.64
2016-06-13T07:31:53.149Z,18.6
2016-06-13T07:33:12.609Z,18.51
2016-06-13T07:33:46.968Z,18.39
2016-06-13T07:34:47.079Z,18.37
2016-06-13T07:35:47.005Z,18.39
2016-06-13T07:36:48.430Z,18.39
2016-06-13T07:37:47.043Z,18.27
2016-06-13T07:38:53.202Z,18.26
2016-06-13T07:39:47.095Z,18.19
2016-06-13T07:41:06.321Z,18.21
2016-06-13T07:41:50.634Z,18.28
2016-06-13T07:42:50.433Z,18.28
2016-06-13T07:44:03.252Z,18.45
2016-06-13T07:44:53.424Z,18.61
2016-06-13T07:46:09.695Z,18.66
2016-06-13T07:46:50.445Z,18.67
2016-06-13T07:47:50.480Z,18.67
2016-06-13T07:48:59.751Z,18.78
2016-06-13T07:50:03.192Z,18.83
2016-06-13T07:50:50.520Z,18.76
2016-06-13T07:52:16.198Z,18.76
2016-06-13T07:52:53.635Z,18.74
2016-06-13T07:54:21.860Z,18.73
2016-06-13T07:55:00.160Z,18.64
2016-06-13T07:56:31.477Z,18.49
2016-06-13T07:57:00.042Z,18.49
2016-06-13T07:58:01.044Z,18.37
2016-06-13T07:59:00.314Z,18.39
2016-06-13T08:00:01.520Z,18.31
2016-06-13T08:01:01.929Z,18.37
2016-06-13T08:02:00.323Z,18.52
2016-06-13T08:03:19.669Z,18.51
2016-06-13T08:04:09.891Z,18.48
2016-06-13T08:05:29.332Z,18.57
2016-06-13T08:06:22.725Z,18.58
2016-06-13T08:07:34.963Z,18.67
2016-06-13T08:08:29.153Z,18.67
2016-06-13T08:09:03.735Z,18.83
2016-06-13T08:10:36.456Z,18.88
2016-06-13T08:11:03.803Z,18.94
2016-06-13T08:12:03.791Z,18.78
2016-06-13T08:13:19.013Z,18.88
2016-06-13T08:14:19.062Z,18.89
2016-06-13T08:15:20.722Z,18.91
2016-06-13T08:16:38.287Z,18.94
2016-06-13T08:17:19.134Z,18.98
2016-06-13T08:18:38.356Z,18.97
2016-06-13T08:19:19.172Z,19.04
2016-06-13T08:20:19.190Z,18.82
2016-06-13T08:21:20.647Z,18.97
2016-06-13T08:22:19.243Z,18.89
2016-06-13T08:23:32.169Z,18.91
2016-06-13T08:24:19.296Z,18.92
2016-06-13T08:25:19.440Z,18.82
2016-06-13T08:26:19.319Z,18.81
2016-06-13T08:27:32.118Z,19
2016-06-13T08:28:32.792Z,18.92
2016-06-13T08:29:19.406Z,19.05
2016-06-13T08:30:19.299Z,18.97
2016-06-13T08:31:19.474Z,18.97
2016-06-13T08:32:19.508Z,18.86
2016-06-13T08:33:19.496Z,18.83
2016-06-13T08:34:32.108Z,18.88
2016-06-13T08:35:19.564Z,18.73
2016-06-13T08:36:19.584Z,18.83
2016-06-13T08:37:32.321Z,18.89
2016-06-13T08:38:19.637Z,18.88
2016-06-13T08:39:19.654Z,18.73
2016-06-13T08:40:32.424Z,18.71
2016-06-13T08:41:32.505Z,18.83
2016-06-13T08:42:45.445Z,18.94
2016-06-13T08:43:20.199Z,19
2016-06-13T08:45:35.017Z,19.15
2016-06-13T08:46:34.880Z,19.07
2016-06-13T08:47:35.039Z,19.15
2016-06-13T08:48:35.089Z,19.22
2016-06-13T08:49:47.968Z,19.15
2016-06-13T08:50:47.954Z,19.27
2016-06-13T08:51:35.176Z,19.38
2016-06-13T08:52:35.195Z,19.57
2016-06-13T08:53:35.277Z,19.77
2016-06-13T08:55:06.517Z,19.7
2016-06-13T08:56:09.676Z,19.66
2016-06-13T08:56:50.489Z,19.75
2016-06-13T08:57:51.351Z,19.64
2016-06-13T08:58:50.557Z,19.78
2016-06-13T08:59:53.623Z,19.87
2016-06-13T09:00:50.579Z,19.93
2016-06-13T09:02:09.819Z,20.08
2016-06-13T09:03:03.385Z,20.19
2016-06-13T09:03:50.650Z,20.21
2016-06-13T09:04:50.700Z,20.27
2016-06-13T09:05:51.001Z,20.17
2016-06-13T09:06:53.769Z,20.22
2016-06-13T09:07:53.804Z,20.1
2016-06-13T09:09:03.513Z,19.96
2016-06-13T09:10:06.610Z,19.79
2016-06-13T09:10:50.688Z,19.56
2016-06-13T09:11:57.143Z,19.52
2016-06-13T09:12:52.694Z,19.57
2016-06-13T09:13:51.041Z,19.59
2016-06-13T09:15:03.781Z,19.63
2016-06-13T09:16:10.176Z,19.72
2016-06-13T09:17:16.709Z,19.66
2016-06-13T09:19:22.325Z,19.34
2016-06-13T09:19:51.028Z,19.16
2016-06-13T09:22:00.662Z,19.01
2016-06-13T09:23:00.665Z,19.15
2016-06-13T09:24:13.402Z,19.29
2016-06-13T09:25:00.734Z,19.32
2016-06-13T09:26:00.753Z,19.39
2016-06-13T09:27:13.506Z,19.6
2016-06-13T09:28:32.430Z,19.72
2016-06-13T09:29:00.669Z,19.78
2016-06-13T09:30:00.874Z,19.87
2016-06-13T09:31:00.861Z,19.93
2016-06-13T09:32:03.975Z,19.97
2016-06-13T09:33:32.212Z,20.04
2016-06-13T09:34:06.996Z,20.08
2016-06-13T09:35:00.968Z,20.04
2016-06-13T09:36:26.658Z,20.21
2016-06-13T09:37:01.021Z,20.3
2016-06-13T09:39:10.746Z,20.12
2016-06-13T09:41:26.017Z,20.22
2016-06-13T09:42:26.052Z,20.39
2016-06-13T09:43:26.071Z,20.58
2016-06-13T09:44:38.902Z,20.78
2016-06-13T09:45:26.123Z,20.96
2016-06-13T09:46:45.345Z,21.13
2016-06-13T09:47:45.380Z,21.29
2016-06-13T09:48:26.211Z,21.25
2016-06-13T09:49:26.244Z,21.14
2016-06-13T09:50:38.998Z,21.2
2016-06-13T09:51:26.251Z,21.15
2016-06-13T09:52:26.286Z,21.1
2016-06-13T09:53:26.414Z,21.22
2016-06-13T09:54:26.339Z,21.33
2016-06-13T09:55:27.796Z,21.47
2016-06-13T09:56:39.126Z,21.74
2016-06-13T09:57:26.426Z,21.69
2016-06-13T09:58:52.102Z,21.62
2016-06-13T09:59:26.494Z,21.56
2016-06-13T10:00:59.203Z,21.26
2016-06-13T10:01:43.000Z,21.07
2016-06-13T10:02:43.176Z,20.89
2016-06-13T10:03:55.945Z,20.9
2016-06-13T10:04:56.103Z,20.86
2016-06-13T10:05:43.279Z,20.86
2016-06-13T10:07:14.582Z,20.85
2016-06-13T10:07:58.550Z,20.9
2016-06-13T10:08:58.569Z,20.71
2016-06-13T10:10:11.434Z,20.64
2016-06-13T10:10:58.700Z,20.5
2016-06-13T10:11:58.641Z,20.26
2016-06-13T10:13:11.476Z,20.33
2016-06-13T10:13:58.694Z,20.24
2016-06-13T10:15:17.934Z,20.21
2016-06-13T10:16:01.891Z,20.32
2016-06-13T10:17:01.753Z,20.26
2016-06-13T10:18:14.725Z,20.32
2016-06-13T10:19:09.649Z,20.33
2016-06-13T10:20:02.012Z,20.37
2016-06-13T10:21:21.218Z,20.46
2016-06-13T10:22:02.050Z,20.5
2016-06-13T10:23:01.912Z,20.52
2016-06-13T10:24:11.432Z,20.49
2016-06-13T10:25:02.121Z,20.5
2016-06-13T10:26:02.155Z,20.58
2016-06-13T10:27:15.018Z,20.66
2016-06-13T10:28:15.787Z,20.46
2016-06-13T10:29:21.587Z,20.42
2016-06-13T10:30:02.261Z,20.1
2016-06-13T10:31:02.390Z,20.12
2016-06-13T10:32:02.299Z,20.04
2016-06-13T10:33:33.693Z,19.84
2016-06-13T10:34:03.852Z,19.85
2016-06-13T10:35:03.809Z,19.85
2016-06-13T10:36:02.233Z,19.84
2016-06-13T10:37:21.642Z,19.97
2016-06-13T10:38:02.474Z,20.11
2016-06-13T10:39:02.477Z,20.18
2016-06-13T10:40:02.558Z,20.33
2016-06-13T10:41:02.562Z,20.32
2016-06-13T10:42:21.752Z,20.48
2016-06-13T10:44:03.038Z,20.8
2016-06-13T10:45:02.636Z,20.85
2016-06-13T10:46:15.374Z,20.82
2016-06-13T10:47:02.689Z,20.77
2016-06-13T10:48:23.317Z,20.8
2016-06-13T10:49:04.164Z,20.77
2016-06-13T10:50:02.792Z,20.74
2016-06-13T10:51:02.810Z,20.71
2016-06-13T10:52:22.001Z,20.73
2016-06-13T10:53:02.973Z,20.82
2016-06-13T10:54:02.866Z,20.82
2016-06-13T10:55:02.902Z,20.64
2016-06-13T10:56:05.951Z,20.56
2016-06-13T10:57:04.345Z,20.44
2016-06-13T10:58:15.973Z,20.22
2016-06-13T10:59:15.710Z,20.11
2016-06-13T11:00:28.682Z,20.11
2016-06-13T11:01:03.045Z,20.22
2016-06-13T11:02:06.141Z,20.19
2016-06-13T11:03:06.097Z,20.18
2016-06-13T11:04:03.116Z,20.27
2016-06-13T11:05:03.135Z,20.08
2016-06-13T11:06:06.217Z,20.12
2016-06-13T11:07:03.189Z,20.12
2016-06-13T11:08:03.238Z,20.17
2016-06-13T11:09:06.288Z,20.15
2016-06-13T11:10:03.276Z,20.17
2016-06-13T11:11:03.279Z,20.21
2016-06-13T11:12:06.204Z,20.24
2016-06-13T11:13:03.363Z,20.22
2016-06-13T11:14:03.881Z,20.37
2016-06-13T11:15:22.588Z,20.48
2016-06-13T11:16:06.559Z,20.4
2016-06-13T11:17:06.578Z,20.48
2016-06-13T11:18:06.690Z,20.63
2016-06-13T11:19:06.615Z,20.78
2016-06-13T11:20:19.229Z,20.71
2016-06-13T11:21:06.685Z,20.59
2016-06-13T11:22:38.000Z,20.52
2016-06-13T11:23:08.158Z,20.5
2016-06-13T11:24:06.600Z,20.48
2016-06-13T11:25:13.040Z,20.37
2016-06-13T11:26:06.793Z,20.34
2016-06-13T11:27:26.031Z,20.18
2016-06-13T11:28:06.753Z,20.26
2016-06-13T11:29:07.084Z,20.15
2016-06-13T11:30:22.118Z,20.1
2016-06-13T11:31:07.012Z,20.19
2016-06-13T11:32:19.718Z,20.39
2016-06-13T11:33:26.189Z,20.56
2016-06-13T11:34:07.006Z,20.75
2016-06-13T11:35:38.306Z,20.89
2016-06-13T11:36:07.059Z,20.89
2016-06-13T11:37:07.077Z,20.85
2016-06-13T11:38:16.721Z,21.07
2016-06-13T11:39:16.724Z,21.13
2016-06-13T11:40:16.743Z,21.26
2016-06-13T11:41:16.808Z,21.23
2016-06-13T11:42:16.811Z,21.4
2016-06-13T11:43:29.689Z,21.66
2016-06-13T11:44:29.678Z,21.97
2016-06-13T11:45:16.884Z,22.16
2016-06-13T11:46:37.526Z,22.16
2016-06-13T11:47:21.623Z,22.26
2016-06-13T11:48:21.626Z,22.65
2016-06-13T11:49:21.645Z,22.68
2016-06-13T11:50:21.710Z,22.73
2016-06-13T11:51:21.683Z,22.89
2016-06-13T11:52:34.467Z,23.18
2016-06-13T11:53:21.767Z,23.01
2016-06-13T11:54:47.442Z,23.2
2016-06-13T11:55:37.679Z,23.34
2016-06-13T11:56:57.120Z,23.1
2016-06-13T11:58:06.907Z,23.25
2016-06-13T11:58:41.673Z,23.33
2016-06-13T11:59:41.207Z,23.28
2016-06-13T12:00:41.257Z,23.52
2016-06-13T12:01:53.792Z,23.71
2016-06-13T12:02:41.233Z,23.84
2016-06-13T12:04:06.942Z,24.09
2016-06-13T12:04:51.020Z,24.09
2016-06-13T12:06:10.212Z,24.38
2016-06-13T12:06:51.056Z,24.71
2016-06-13T12:09:06.363Z,25.7
2016-06-13T12:10:06.366Z,25.61
2016-06-13T12:11:19.275Z,25.25
2016-06-13T12:12:09.481Z,24.94
2016-06-13T12:13:06.312Z,24.84
2016-06-13T12:14:06.628Z,24.62
2016-06-13T12:15:06.523Z,24.46
2016-06-13T12:16:06.634Z,24.78
2016-06-13T12:17:19.293Z,24.56
2016-06-13T12:18:25.813Z,24.4
2016-06-13T12:19:27.269Z,24.38
2016-06-13T12:20:37.944Z,24.06
2016-06-13T12:21:06.681Z,24.06
2016-06-13T12:23:19.390Z,24.38
2016-06-13T12:24:08.206Z,24.22
2016-06-13T12:25:06.835Z,24.43
2016-06-13T12:26:06.852Z,24.4
2016-06-13T12:27:06.980Z,24.09
2016-06-13T12:28:20.469Z,23.92
2016-06-13T12:29:26.003Z,23.64
2016-06-13T12:30:08.381Z,23.84
2016-06-13T12:31:32.664Z,24.01
2016-06-13T12:32:19.762Z,24.21
2016-06-13T12:33:07.062Z,24.25
2016-06-13T12:34:07.137Z,24.26
2016-06-13T12:35:08.650Z,24.24
2016-06-13T12:36:07.286Z,24.25
2016-06-13T12:37:07.362Z,24.41
2016-06-13T12:38:14.932Z,24.78
2016-06-13T12:39:07.434Z,24.93
2016-06-13T12:40:07.499Z,25.11
2016-06-13T12:41:20.298Z,25.52
2016-06-13T12:42:07.582Z,25.59
2016-06-13T12:43:12.185Z,25.59
2016-06-13T12:44:11.553Z,25.56
2016-06-13T12:45:07.686Z,25.59
2016-06-13T12:46:14.022Z,25.61
2016-06-13T12:47:10.827Z,25.71
2016-06-13T12:48:33.473Z,25.52
2016-06-13T12:49:13.932Z,25.26
2016-06-13T12:52:07.150Z,24.77
2016-06-13T12:52:35.900Z,24.75
2016-06-13T12:53:35.935Z,24.77
2016-06-13T12:54:51.205Z,25.06
2016-06-13T12:55:51.115Z,25.16
2016-06-13T12:57:04.024Z,25.12
2016-06-13T12:57:51.325Z,25.16
2016-06-13T12:59:16.988Z,24.99
2016-06-13T12:59:52.863Z,24.77
2016-06-13T13:00:51.367Z,24.41
2016-06-13T13:02:04.214Z,24.19
2016-06-13T13:03:04.171Z,23.88
2016-06-13T13:03:51.454Z,23.7
2016-06-13T13:05:22.711Z,23.51
2016-06-13T13:05:52.930Z,23.33
2016-06-13T13:08:06.827Z,23.04
2016-06-13T13:09:06.862Z,22.99
2016-06-13T13:10:06.880Z,22.78
2016-06-13T13:11:09.979Z,22.78
2016-06-13T13:12:07.952Z,22.71
2016-06-13T13:13:06.968Z,22.86
2016-06-13T13:14:07.001Z,22.89
2016-06-13T13:15:10.086Z,22.76
2016-06-13T13:16:19.652Z,22.77
2016-06-13T13:17:07.089Z,22.71
2016-06-13T13:18:07.123Z,22.68
2016-06-13T13:19:20.223Z,22.53
2016-06-13T13:20:08.585Z,22.63
2016-06-13T13:21:27.870Z,22.58
2016-06-13T13:22:07.229Z,22.77
2016-06-13T13:23:07.263Z,22.62
2016-06-13T13:24:07.298Z,22.4
2016-06-13T13:25:26.351Z,22.3
2016-06-13T13:26:10.323Z,22.23